Weather reports worldwide

Advertisment
Navacerrada, Spain (8215): temperature & dewpoint: 08.12.2018 00:00:00 - 14.12.2018 00:00:00 (CET)Navacerrada, Spain (8215): wind speed & gusts: 08.12.2018 00:00:00 - 14.12.2018 00:00:00 (CET)Navacerrada, Spain (8215): wind direction: 08.12.2018 00:00:00 - 14.12.2018 00:00:00 (CET)Navacerrada, Spain (8215): visibility: 08.12.2018 00:00:00 - 14.12.2018 00:00:00 (CET)Navacerrada, Spain (8215): precipitation: 08.12.2018 00:00:00 - 14.12.2018 00:00:00 (CET)
Date & Time tt [°C] td [°C] ff [km/h] ff [kn] fx [km/h] fx [kn] dd vv [km] rr [mm]
14.12.2018 00:00:00 -3,8 -3,8 24 13 - - NNW 0,1 0,0
13.12.2018 23:00:00 -3,9 -3,9 29 16 - - NNW 0,1 0,0
13.12.2018 22:00:00 -3,9 -3,9 26 14 - - NNW 0,1 -
13.12.2018 21:00:00 -3,9 -3,9 28 15 85 46 NNW 0,1 0,0
13.12.2018 20:00:00 -3,5 -3,5 31 17 89 48 NNW 0,1 0,0
13.12.2018 19:00:00 -3,4 -3,4 35 19 - - NNW 2,0 -
13.12.2018 18:00:00 -2,8 -2,8 39 21 85 46 NNW 0,9 0,6
13.12.2018 17:00:00 -2,5 -2,5 34 18 89 48 NW 0,1 4,0
13.12.2018 16:00:00 -2,1 -2,1 21 11 - - NW 0,2 -
13.12.2018 15:00:00 -2,4 -2,4 29 16 - - NNW 0,1 0,4
13.12.2018 14:00:00 -2,2 -2,2 22 12 - - NNW 0,1 1,0
13.12.2018 13:00:00 -2,5 -2,5 26 14 - - NNW 0,1 -
13.12.2018 12:00:00 -2,8 -2,8 24 13 - - N 0,1 0,0
13.12.2018 11:00:00 -2,5 -2,5 22 12 - - N 0,1 1,0
13.12.2018 10:00:00 -2,1 -2,1 18 10 - - N 0,2 -
13.12.2018 09:00:00 - - - - - - - - -
13.12.2018 08:00:00 1,1 1,1 31 17 - - SW 1,0 0,4
13.12.2018 07:00:00 0,7 0,7 34 18 - - S 0,1 -
13.12.2018 06:00:00 0,7 0,7 35 19 - - SSW 0,1 0,0
13.12.2018 05:00:00 1,0 1,0 35 19 - - SSW 0,2 1,0
13.12.2018 04:00:00 2,0 1,7 26 14 - - SW 0,7 -
13.12.2018 03:00:00 1,5 0,8 9 5 - - SW 1,0 2,0
13.12.2018 02:00:00 2,1 0,6 26 14 - - W 20 0,0
13.12.2018 01:00:00 1,2 -0,1 15 8 - - W 16 -
13.12.2018 00:00:00 1,8 -2,9 18 10 - - W 18 0,0
12.12.2018 23:00:00 0,4 0,0 8 4 - - N 8 0,0
12.12.2018 22:00:00 0,7 -0,3 8 4 - - N 0,1 -
12.12.2018 21:00:00 3,1 -8,0 15 8 - - W 20 0,0
12.12.2018 20:00:00 5,1 -7,4 11 6 - - W 20 0,0
12.12.2018 19:00:00 3,8 -6,5 16 9 - - W 15 -
12.12.2018 18:00:00 1,8 0,2 13 7 - - WSW 15 0,0
12.12.2018 17:00:00 3,1 2,2 2 1 - - W - 0,0
12.12.2018 16:00:00 5,0 2,7 8 4 - - NW 0,8 -
12.12.2018 15:00:00 8,8 -2,2 15 8 - - W 20 0,0
12.12.2018 14:00:00 9,4 -1,1 15 8 - - SSW 20 0,0
12.12.2018 13:00:00 9,5 -0,7 13 7 - - SW 30 -
12.12.2018 12:00:00 8,1 -1,4 15 8 - - SW 20 0,0
12.12.2018 11:00:00 6,9 -0,8 11 6 - - WSW 20 0,0
12.12.2018 10:00:00 4,1 -1,7 8 4 - - WSW 30 -
12.12.2018 09:00:00 3,2 -2,3 11 6 - - W 20 0,0
12.12.2018 08:00:00 3,3 -2,5 9 5 - - W 20 0,0
12.12.2018 07:00:00 3,9 -2,5 9 5 - - WNW 20 -
12.12.2018 06:00:00 3,7 -2,5 8 4 - - W 20 0,0
12.12.2018 05:00:00 3,5 -2,5 5 3 - - WNW 20 0,0
12.12.2018 04:00:00 2,5 -2,0 2 1 - - N 20 -
12.12.2018 03:00:00 2,4 -0,7 5 3 - - NNE 20 0,0
12.12.2018 02:00:00 2,4 -0,7 9 5 - - N 20 0,0
12.12.2018 01:00:00 3,7 -3,1 11 6 - - N 20 -
12.12.2018 00:00:00 2,6 -2,1 9 5 - - NE 20 0,0
11.12.2018 23:00:00 2,1 -4,6 15 8 - - NNE 20 0,0
11.12.2018 22:00:00 3,1 -6,9 15 8 - - NNE 20 -
11.12.2018 21:00:00 3,8 -7,1 18 10 - - N 20 0,0
11.12.2018 20:00:00 4,1 -8,3 13 7 - - NNE 20 0,0
11.12.2018 19:00:00 4,1 -8,6 15 8 - - NNE 20 -
11.12.2018 18:00:00 3,5 -7,1 13 7 - - NNE 20 0,0
11.12.2018 17:00:00 5,0 -5,7 13 7 - - N 20 0,0
11.12.2018 16:00:00 6,4 -5,6 8 4 - - N 20 -
11.12.2018 15:00:00 7,7 -6,5 11 6 - - NNW 20 0,0
11.12.2018 14:00:00 9,3 -5,0 9 5 - - N 20 0,0
11.12.2018 13:00:00 9,8 -4,6 8 4 - - NNW 30 -
11.12.2018 12:00:00 9,0 -2,9 9 5 - - NNW 30 0,0
11.12.2018 11:00:00 8,0 -5,1 9 5 - - N 20 0,0
11.12.2018 10:00:00 6,7 -6,3 8 4 - - N 30 -
11.12.2018 09:00:00 5,8 -7,8 8 4 - - NNW 20 0,0
11.12.2018 08:00:00 6,1 -8,6 9 5 - - NNW 20 0,0
11.12.2018 07:00:00 5,8 -8,5 8 4 - - NNW 20 -
11.12.2018 06:00:00 6,0 -6,9 9 5 - - WNW 20 0,0
11.12.2018 05:00:00 6,4 -7,6 8 4 - - NW 20 0,0
11.12.2018 04:00:00 6,2 -7,8 8 4 - - NW 20 -
11.12.2018 03:00:00 6,5 -7,5 9 5 - - NW 20 0,0
11.12.2018 02:00:00 6,6 -7,1 8 4 - - W 20 0,0
11.12.2018 01:00:00 6,8 -6,6 8 4 - - WNW 20 -
11.12.2018 00:00:00 6,9 -6,5 8 4 - - WSW 20 0,0
10.12.2018 23:00:00 6,5 -4,0 4 2 - - SSW 20 0,0
10.12.2018 22:00:00 6,6 -2,3 4 2 - - N 20 -
10.12.2018 21:00:00 6,4 -2,5 5 3 - - N 20 0,0
10.12.2018 20:00:00 6,6 -2,6 8 4 - - N 20 0,0
10.12.2018 19:00:00 6,5 -2,7 8 4 - - NE 20 -
10.12.2018 18:00:00 5,9 -3,5 8 4 - - NE 20 0,0
10.12.2018 17:00:00 6,9 -3,9 5 3 - - NNW 20 0,0
10.12.2018 16:00:00 8,3 -2,7 5 3 - - N 30 -
10.12.2018 15:00:00 10,5 -2,6 5 3 - - NNW 20 0,0
10.12.2018 14:00:00 9,8 -3,2 5 3 - - NNW 20 0,0
10.12.2018 13:00:00 10,8 -4,9 8 4 - - NW 30 -
10.12.2018 12:00:00 9,2 -3,7 9 5 - - NNW 20 0,0
10.12.2018 11:00:00 8,6 -3,6 11 6 - - N 20 0,0
10.12.2018 10:00:00 6,2 -12,9 11 6 - - N 30 -
10.12.2018 09:00:00 5,0 -15,0 13 7 - - N 20 0,0
10.12.2018 08:00:00 4,9 -17,5 13 7 - - NNW 20 0,0
10.12.2018 07:00:00 4,9 -16,9 13 7 - - N 20 -
10.12.2018 06:00:00 4,7 -16,4 9 5 - - NW 20 0,0
10.12.2018 05:00:00 5,0 -15,0 11 6 - - NW 20 0,0
10.12.2018 04:00:00 5,1 -13,4 13 7 - - NNW 20 -
10.12.2018 03:00:00 4,9 -13,5 15 8 - - NNW 20 0,0
10.12.2018 02:00:00 5,0 -14,5 11 6 - - NNW 20 0,0
10.12.2018 01:00:00 5,5 -14,6 18 10 - - N 20 -
10.12.2018 00:00:00 5,5 -15,7 18 10 - - N 20 0,0
09.12.2018 23:00:00 5,2 -16,6 16 9 - - N 20 0,0
09.12.2018 22:00:00 5,4 -17,8 15 8 - - NNE 20 -
09.12.2018 21:00:00 5,0 -17,4 15 8 - - NNE 20 0,0
09.12.2018 20:00:00 5,1 -15,5 18 10 - - N 20 0,0
09.12.2018 19:00:00 4,8 -11,3 18 10 - - N 20 -
09.12.2018 18:00:00 4,7 -0,5 21 11 - - N 20 0,0
09.12.2018 17:00:00 6,5 -2,9 13 7 - - N 20 0,0
09.12.2018 16:00:00 6,9 -1,3 11 6 - - N 30 -
09.12.2018 15:00:00 8,1 -0,2 13 7 - - NNE 20 0,0
09.12.2018 14:00:00 9,0 -0,6 9 5 - - N 20 0,0
09.12.2018 13:00:00 8,2 0,7 13 7 - - N 30 -
09.12.2018 12:00:00 7,8 1,4 18 10 - - N 20 0,0
09.12.2018 11:00:00 7,7 0,6 16 9 - - N 20 0,0
09.12.2018 10:00:00 6,7 -0,5 18 10 - - N 30 -
09.12.2018 09:00:00 5,5 -0,6 21 11 - - N 20 0,0
09.12.2018 08:00:00 6,1 0,6 22 12 - - N 20 0,0
09.12.2018 07:00:00 5,4 -0,7 18 10 - - N 19 -
09.12.2018 06:00:00 5,5 -0,8 21 11 - - N 20 0,0
09.12.2018 05:00:00 5,2 -1,9 21 11 - - N 20 0,0
09.12.2018 04:00:00 4,1 -3,0 21 11 - - N 20 -
09.12.2018 03:00:00 3,4 -4,6 18 10 - - N 20 0,0
09.12.2018 02:00:00 4,0 -6,6 21 11 - - N 20 0,0
09.12.2018 01:00:00 5,1 -3,5 16 9 - - N 20 -
09.12.2018 00:00:00 5,8 -0,9 16 9 - - NNE 20 0,0
08.12.2018 23:00:00 6,2 -1,7 16 9 - - NNE 20 0,0
08.12.2018 22:00:00 6,4 -2,0 18 10 - - N 20 -
08.12.2018 21:00:00 6,8 -2,6 21 11 - - N 20 0,0
08.12.2018 20:00:00 6,9 -0,6 18 10 - - N 20 0,0
08.12.2018 19:00:00 6,6 -11,6 18 10 - - N 20 -
08.12.2018 18:00:00 7,0 -6,4 18 10 - - N 20 0,0
08.12.2018 17:00:00 5,6 -8,3 16 9 - - N 20 0,0
08.12.2018 16:00:00 5,5 0,3 16 9 - - NNW 30 -
08.12.2018 15:00:00 6,9 -5,5 13 7 - - NNW 20 0,0
08.12.2018 14:00:00 6,8 -5,9 13 7 - - N 20 0,0
08.12.2018 13:00:00 5,7 -7,2 16 9 - - N 30 -
08.12.2018 12:00:00 4,7 0,3 15 8 - - N 20 0,0
08.12.2018 11:00:00 2,3 -5,1 21 11 - - N 20 0,0
08.12.2018 10:00:00 2,6 -7,6 24 13 - - N 20 -
08.12.2018 09:00:00 -0,5 -0,5 18 10 - - NE 20 0,0
08.12.2018 08:00:00 0,2 0,2 18 10 - - NNE 0,1 0,0
08.12.2018 07:00:00 0,2 0,2 16 9 - - N 0,2 -
08.12.2018 06:00:00 0,5 0,5 16 9 - - N - 0,0
08.12.2018 05:00:00 1,0 1,0 15 8 - - N - 0,0
08.12.2018 04:00:00 1,4 1,4 15 8 - - NNW - -
08.12.2018 03:00:00 1,8 1,8 13 7 - - NNW - 0,0
08.12.2018 02:00:00 2,3 2,3 11 6 - - NNW - 0,0
08.12.2018 01:00:00 2,6 2,6 11 6 - - NNW - -
08.12.2018 00:00:00 2,7 2,7 15 8 - - NNW - 0,2

tt = temperature
td = dewpoint
ff = wind speed
fx = gusts
dd = wind direction
vv = visibility
rr = precipitation

Next stations